createdAt,value
2023-01-05T00:01:14.473Z,9.06
2023-01-05T00:06:14.888Z,9.00
2023-01-05T00:11:28.929Z,8.92
2023-01-05T00:16:39.517Z,8.87
2023-01-05T00:21:50.261Z,8.80
2023-01-05T00:26:41.908Z,8.74
2023-01-05T00:31:33.617Z,8.67
2023-01-05T00:36:25.268Z,8.66
2023-01-05T00:41:16.909Z,8.63
2023-01-05T00:46:08.559Z,8.64
2023-01-05T00:51:00.213Z,8.64
2023-01-05T00:55:58.615Z,8.69
2023-01-05T01:00:50.686Z,8.74
2023-01-05T01:05:42.399Z,8.73
2023-01-05T01:10:34.155Z,8.74
2023-01-05T01:15:25.874Z,8.73
2023-01-05T01:20:17.669Z,8.70
2023-01-05T01:25:09.692Z,8.66
2023-01-05T01:30:01.365Z,8.61
2023-01-05T01:34:55.149Z,8.60
2023-01-05T01:39:46.821Z,8.61
2023-01-05T01:44:47.485Z,8.66
2023-01-05T01:49:39.133Z,8.69
2023-01-05T01:54:30.923Z,8.70
2023-01-05T01:59:24.877Z,8.73
2023-01-05T02:04:16.586Z,8.77
2023-01-05T02:09:08.342Z,8.78
2023-01-05T02:14:15.309Z,8.80
2023-01-05T02:19:43.321Z,8.76
2023-01-05T02:25:19.470Z,8.76
2023-01-05T02:30:43.412Z,8.73
2023-01-05T02:35:50.699Z,8.70
2023-01-05T02:40:51.926Z,8.68
2023-01-05T02:45:43.574Z,8.66
2023-01-05T02:50:43.507Z,8.65
2023-01-05T02:55:41.602Z,8.65
2023-01-05T03:00:40.233Z,8.70
2023-01-05T03:05:40.065Z,8.69
2023-01-05T03:10:50.781Z,8.68
2023-01-05T03:15:46.451Z,8.65
2023-01-05T03:20:42.325Z,8.59
2023-01-05T03:25:56.447Z,8.56
2023-01-05T03:31:42.887Z,8.50
2023-01-05T03:36:42.496Z,8.42
2023-01-05T03:41:35.360Z,8.38
2023-01-05T03:46:28.223Z,8.33
2023-01-05T03:51:19.990Z,8.27
2023-01-05T03:56:11.622Z,8.20
2023-01-05T04:01:03.794Z,8.14
2023-01-05T04:05:55.656Z,8.06
2023-01-05T04:10:47.346Z,8.02
2023-01-05T04:15:40.233Z,8.01
2023-01-05T04:20:31.877Z,8.00
2023-01-05T04:25:23.674Z,7.99
2023-01-05T04:30:15.336Z,7.96
2023-01-05T04:35:11.257Z,7.97
2023-01-05T04:40:03.509Z,8.00
2023-01-05T04:44:55.205Z,8.01
2023-01-05T04:49:46.892Z,8.04
2023-01-05T04:54:38.528Z,8.07
2023-01-05T04:59:30.222Z,8.06
2023-01-05T05:04:21.980Z,8.11
2023-01-05T05:09:13.568Z,8.12
2023-01-05T05:14:05.197Z,8.14
2023-01-05T05:18:57.869Z,8.14
2023-01-05T05:23:49.548Z,8.17
2023-01-05T05:28:41.237Z,8.18
2023-01-05T05:33:32.928Z,8.18
2023-01-05T05:38:24.647Z,8.17
2023-01-05T05:43:16.479Z,8.17
2023-01-05T05:48:08.253Z,8.16
2023-01-05T05:53:00.459Z,8.18
2023-01-05T05:57:52.274Z,8.19
2023-01-05T06:02:44.137Z,8.23
2023-01-05T06:07:35.780Z,8.25
2023-01-05T06:12:27.394Z,8.28
2023-01-05T06:17:19.436Z,8.30
2023-01-05T06:22:11.049Z,8.29
2023-01-05T06:27:02.807Z,8.32
2023-01-05T06:31:54.556Z,8.29
2023-01-05T06:36:46.182Z,8.32
2023-01-05T06:41:37.891Z,8.32
2023-01-05T06:46:29.671Z,8.36
2023-01-05T06:51:21.568Z,8.40
2023-01-05T06:56:13.279Z,8.43
2023-01-05T07:01:05.188Z,8.45
2023-01-05T07:05:56.940Z,8.45
2023-01-05T07:10:48.619Z,8.45
2023-01-05T07:15:40.285Z,8.44
2023-01-05T07:20:31.968Z,8.42
2023-01-05T07:25:23.668Z,8.43
2023-01-05T07:30:15.348Z,8.48
2023-01-05T07:35:07.367Z,8.49
2023-01-05T07:39:59.000Z,8.47
2023-01-05T07:44:50.741Z,8.47
2023-01-05T07:49:42.427Z,8.48
2023-01-05T07:54:34.114Z,8.46
2023-01-05T07:59:25.820Z,8.50
2023-01-05T08:04:17.739Z,8.55
2023-01-05T08:09:28.261Z,8.59
2023-01-05T08:14:20.081Z,8.63
2023-01-05T08:19:12.031Z,8.62
2023-01-05T08:24:03.919Z,8.62
2023-01-05T08:28:55.773Z,8.60
2023-01-05T08:33:47.838Z,8.60
2023-01-05T08:38:48.555Z,8.62
2023-01-05T08:43:40.318Z,8.67
2023-01-05T08:48:32.052Z,8.70
2023-01-05T08:53:23.910Z,8.73
2023-01-05T08:58:15.646Z,8.79
2023-01-05T09:03:08.241Z,8.83
2023-01-05T09:08:00.276Z,8.90
2023-01-05T09:12:51.952Z,8.94
2023-01-05T09:17:43.694Z,8.99
2023-01-05T09:22:36.302Z,9.05
2023-01-05T09:27:28.007Z,9.11
2023-01-05T09:32:20.319Z,9.16
2023-01-05T09:37:11.932Z,9.20
2023-01-05T09:42:06.808Z,9.25
2023-01-05T09:47:11.967Z,9.32
2023-01-05T09:52:09.500Z,9.36
2023-01-05T09:57:10.523Z,9.43
2023-01-05T10:02:34.426Z,9.47
2023-01-05T10:07:55.711Z,9.58
2023-01-05T10:13:03.220Z,9.65
2023-01-05T10:17:55.401Z,9.74
2023-01-05T10:23:03.173Z,9.81
2023-01-05T10:28:31.950Z,9.92
2023-01-05T10:33:40.658Z,9.97
2023-01-05T10:38:57.049Z,10.01
2023-01-05T10:44:02.589Z,10.06
2023-01-05T10:48:54.325Z,10.14
2023-01-05T10:53:46.115Z,10.19
2023-01-05T10:58:39.980Z,10.26
2023-01-05T11:08:53.185Z,10.44
2023-01-05T11:13:49.545Z,10.62
2023-01-05T11:18:53.369Z,10.82
2023-01-05T11:23:52.036Z,10.90
2023-01-05T11:29:09.741Z,10.96
2023-01-05T11:34:12.062Z,11.00
2023-01-05T11:39:03.982Z,11.02
2023-01-05T11:44:00.375Z,11.06
2023-01-05T11:48:57.535Z,11.10
2023-01-05T11:53:49.177Z,11.20
2023-01-05T11:58:45.746Z,11.33
2023-01-05T12:03:58.872Z,11.44
2023-01-05T12:08:58.524Z,11.48
2023-01-05T12:14:17.572Z,11.50
2023-01-05T12:19:09.207Z,11.52
2023-01-05T12:24:29.445Z,11.60
2023-01-05T12:34:56.628Z,11.69
2023-01-05T12:40:22.794Z,11.70
2023-01-05T12:45:55.819Z,11.64
2023-01-05T12:51:00.809Z,11.57
2023-01-05T12:55:56.421Z,11.52
2023-01-05T13:00:50.151Z,11.47
2023-01-05T13:05:56.132Z,11.44
2023-01-05T13:10:54.230Z,11.32
2023-01-05T13:15:49.002Z,11.29
2023-01-05T13:20:47.043Z,11.25
2023-01-05T13:25:45.983Z,11.21
2023-01-05T13:30:45.664Z,11.18
2023-01-05T13:36:01.733Z,11.17
2023-01-05T13:40:56.672Z,11.17
2023-01-05T13:45:59.841Z,11.19
2023-01-05T13:51:12.698Z,11.20
2023-01-05T13:56:26.028Z,11.20
2023-01-05T14:01:33.327Z,11.19
2023-01-05T14:06:37.229Z,11.21
2023-01-05T14:11:29.458Z,11.24
2023-01-05T14:16:36.527Z,11.27
2023-01-05T14:21:50.009Z,11.28
2023-01-05T14:27:02.987Z,11.26
2023-01-05T14:31:55.533Z,11.24
2023-01-05T14:36:59.226Z,11.23
2023-01-05T14:42:12.436Z,11.19
2023-01-05T14:47:05.553Z,11.14
2023-01-05T14:52:00.518Z,11.13
2023-01-05T14:57:27.123Z,11.07
2023-01-05T15:02:26.262Z,11.03
2023-01-05T15:07:30.307Z,10.98
2023-01-05T15:12:31.880Z,10.92
2023-01-05T15:17:30.664Z,10.89
2023-01-05T15:22:41.927Z,10.84
2023-01-05T15:28:13.128Z,10.83
2023-01-05T15:33:15.541Z,10.81
2023-01-05T15:38:27.429Z,10.79
2023-01-05T15:43:19.383Z,10.77
2023-01-05T15:48:15.541Z,10.75
2023-01-05T15:53:27.611Z,10.70
2023-01-05T15:58:20.669Z,10.65
2023-01-05T16:03:27.153Z,10.62
2023-01-05T16:08:18.958Z,10.55
2023-01-05T16:13:14.123Z,10.52
2023-01-05T16:18:08.594Z,10.50
2023-01-05T16:23:17.249Z,10.45
2023-01-05T16:28:17.390Z,10.41
2023-01-05T16:33:11.882Z,10.37
2023-01-05T16:38:14.327Z,10.35
2023-01-05T16:43:23.573Z,10.28
2023-01-05T16:48:35.226Z,10.25
2023-01-05T16:53:27.327Z,10.23
2023-01-05T16:58:31.919Z,10.22
2023-01-05T17:03:23.542Z,10.20
2023-01-05T17:08:23.521Z,10.22
2023-01-05T17:13:21.315Z,10.23
2023-01-05T17:23:25.908Z,10.21
2023-01-05T17:28:17.640Z,10.20
2023-01-05T17:33:09.612Z,10.22
2023-01-05T17:38:01.167Z,10.20
2023-01-05T17:42:52.920Z,10.18
2023-01-05T17:47:44.981Z,10.17
2023-01-05T17:52:36.658Z,10.11
2023-01-05T17:57:28.445Z,10.11
2023-01-05T18:02:20.233Z,10.10
2023-01-05T18:07:11.937Z,10.10
2023-01-05T18:12:04.515Z,10.11
2023-01-05T18:16:56.178Z,10.04
2023-01-05T18:21:47.942Z,9.99
2023-01-05T18:26:39.790Z,9.94
2023-01-05T18:31:31.467Z,9.91
2023-01-05T18:36:23.070Z,9.91
2023-01-05T18:41:14.890Z,9.90
2023-01-05T18:46:06.917Z,9.93
2023-01-05T18:50:58.779Z,9.97
2023-01-05T18:55:50.422Z,10.01
2023-01-05T19:00:44.221Z,10.05
2023-01-05T19:05:43.468Z,10.09
2023-01-05T19:10:35.349Z,10.10
2023-01-05T19:15:26.983Z,10.10
2023-01-05T19:20:18.767Z,10.12
2023-01-05T19:25:10.447Z,10.15
2023-01-05T19:30:02.310Z,10.18
2023-01-05T19:34:53.990Z,10.21
2023-01-05T19:39:45.705Z,10.21
2023-01-05T19:44:37.368Z,10.23
2023-01-05T19:49:29.265Z,10.23
2023-01-05T19:54:22.622Z,10.21
2023-01-05T19:59:22.812Z,10.26
2023-01-05T20:04:14.729Z,10.30
2023-01-05T20:09:10.633Z,10.33
2023-01-05T20:14:06.916Z,10.36
2023-01-05T20:19:00.634Z,10.40
2023-01-05T20:23:52.293Z,10.45
2023-01-05T20:28:44.577Z,10.49
2023-01-05T20:33:36.259Z,10.50
2023-01-05T20:38:27.994Z,10.54
2023-01-05T20:43:19.712Z,10.54
2023-01-05T20:48:11.420Z,10.56
2023-01-05T20:53:06.188Z,10.59
2023-01-05T20:57:57.910Z,10.62
2023-01-05T21:02:51.636Z,10.61
2023-01-05T21:07:43.463Z,10.59
2023-01-05T21:12:35.213Z,10.59
2023-01-05T21:17:27.283Z,10.56
2023-01-05T21:22:18.958Z,10.52
2023-01-05T21:27:10.709Z,10.50
2023-01-05T21:32:02.822Z,10.49
2023-01-05T21:36:54.408Z,10.49
2023-01-05T21:42:05.473Z,10.49
2023-01-05T21:46:57.304Z,10.47
2023-01-05T21:52:07.325Z,10.46
2023-01-05T21:57:01.123Z,10.40
2023-01-05T22:01:52.810Z,10.29
2023-01-05T22:06:44.613Z,10.22
2023-01-05T22:11:36.391Z,10.21
2023-01-05T22:16:28.045Z,10.19
2023-01-05T22:21:19.724Z,10.09
2023-01-05T22:26:16.996Z,10.01
2023-01-05T22:31:18.229Z,9.90
2023-01-05T22:36:11.259Z,9.75
2023-01-05T22:41:04.172Z,9.61
2023-01-05T22:46:02.347Z,9.49
2023-01-05T22:50:54.147Z,9.36
2023-01-05T22:55:45.740Z,9.25
2023-01-05T23:00:37.637Z,9.14
2023-01-05T23:05:29.203Z,9.04
2023-01-05T23:10:22.141Z,8.96
2023-01-05T23:15:13.818Z,8.85
2023-01-05T23:20:06.282Z,8.75
2023-01-05T23:24:57.989Z,8.68
2023-01-05T23:29:49.569Z,8.62
2023-01-05T23:34:41.343Z,8.55
2023-01-05T23:39:32.979Z,8.54
2023-01-05T23:44:24.620Z,8.46
2023-01-05T23:49:16.287Z,8.37
2023-01-05T23:54:08.093Z,8.31
2023-01-05T23:59:05.924Z,8.23
